Time;durP1;ratioP1;P1;durP2;ratioP2;P2;SDS_P1;SDS_P2;PMS_P1;PMS_P2;Temp;Humidity;BMP_temperature;BMP_pressure;BME280_temperature;BME280_humidity;BME280_pressure;Samples;Min_cycle;Max_cycle;Signal;HPM_P1;HPM_P2
2021/06/22 00:00:52;;;;;;;16.15;5.00;;;;;;;21.54;100.00;100268.51;1746565;80;21074;-55
2021/06/22 00:03:19;;;;;;;20.10;5.28;;;;;;;21.54;100.00;100268.99;1760436;80;21187;-55
2021/06/22 00:05:46;;;;;;;23.50;5.85;;;;;;;21.55;100.00;100263.90;1771576;80;21504;-55
2021/06/22 00:08:12;;;;;;;22.30;6.92;;;;;;;21.55;100.00;100269.36;1771459;79;20885;-55
2021/06/22 00:10:40;;;;;;;21.85;5.95;;;;;;;21.54;100.00;100266.27;1762109;79;21096;-55
2021/06/22 00:13:07;;;;;;;33.67;6.28;;;;;;;21.57;100.00;100270.11;1776937;79;21724;-55
2021/06/22 00:15:34;;;;;;;30.57;6.85;;;;;;;21.59;100.00;100260.77;1775554;79;21036;-55
2021/06/22 00:18:00;;;;;;;24.23;5.58;;;;;;;21.64;100.00;100256.28;1761719;79;21705;-55
2021/06/22 00:20:26;;;;;;;29.18;5.95;;;;;;;21.68;100.00;100257.75;1758326;80;20984;-55
2021/06/22 00:22:53;;;;;;;22.25;6.03;;;;;;;21.71;100.00;100271.11;1771049;80;20981;-55
2021/06/22 00:25:21;;;;;;;25.62;5.62;;;;;;;21.73;100.00;100273.20;1771725;79;21005;-56
2021/06/22 00:27:48;;;;;;;28.30;6.08;;;;;;;21.75;100.00;100279.89;1762807;80;20936;-55
2021/06/22 00:30:16;;;;;;;22.37;6.00;;;;;;;21.75;100.00;100287.56;1774770;79;21898;-56
2021/06/22 00:32:43;;;;;;;23.45;6.30;;;;;;;21.79;100.00;100284.58;1754577;80;21032;-56
2021/06/22 00:35:10;;;;;;;31.45;6.33;;;;;;;21.82;100.00;100282.94;1734205;81;20916;-55
2021/06/22 00:37:38;;;;;;;29.63;6.40;;;;;;;21.84;100.00;100276.84;1738960;80;20994;-55
2021/06/22 00:40:05;;;;;;;23.30;5.83;;;;;;;21.86;100.00;100277.56;1757541;80;21006;-56
2021/06/22 00:42:33;;;;;;;34.25;5.80;;;;;;;21.88;100.00;100271.45;1708526;81;21543;-56
2021/06/22 00:45:00;;;;;;;34.80;7.42;;;;;;;21.89;100.00;100273.19;1772979;79;21024;-55
2021/06/22 00:47:28;;;;;;;24.15;6.22;;;;;;;21.92;100.00;100274.27;1743656;81;21095;-55
2021/06/22 00:49:55;;;;;;;26.73;5.60;;;;;;;21.94;100.00;100266.80;1761051;79;21008;-55
2021/06/22 00:52:27;;;;;;;28.60;6.15;;;;;;;21.95;100.00;100261.70;1766952;79;21331;-56
2021/06/22 00:54:55;;;;;;;19.17;5.33;;;;;;;21.98;100.00;100257.84;1765555;80;21099;-55
2021/06/22 00:57:22;;;;;;;20.20;5.53;;;;;;;22.00;100.00;100255.34;1744285;80;20906;-56
2021/06/22 00:59:49;;;;;;;31.85;6.33;;;;;;;21.99;100.00;100260.41;1766666;79;21525;-56
2021/06/22 01:02:15;;;;;;;36.98;5.80;;;;;;;21.99;100.00;100261.77;1764769;78;39890;-56
2021/06/22 01:04:42;;;;;;;27.02;5.37;;;;;;;21.99;100.00;100260.41;1739536;81;21603;-56
2021/06/22 01:07:22;;;;;;;25.08;5.53;;;;;;;21.99;100.00;100258.20;1735886;81;21519;-56
2021/06/22 01:09:48;;;;;;;27.87;5.85;;;;;;;22.01;100.00;100248.00;1737497;81;20927;-56
2021/06/22 01:12:16;;;;;;;20.77;5.40;;;;;;;22.01;100.00;100246.16;1767258;79;21444;-56
2021/06/22 01:14:45;;;;;;;25.82;6.35;;;;;;;22.02;100.00;100228.77;1764766;79;20935;-56
2021/06/22 01:17:13;;;;;;;22.15;5.30;;;;;;;22.00;100.00;100233.52;1765392;79;21458;-56
2021/06/22 01:19:39;;;;;;;29.48;5.75;;;;;;;21.98;100.00;100214.17;1768411;79;21562;-56
2021/06/22 01:22:06;;;;;;;23.07;5.33;;;;;;;21.98;100.00;100215.54;1766498;79;21006;-56
2021/06/22 01:24:35;;;;;;;36.30;7.33;;;;;;;21.98;100.00;100212.81;1760013;79;20965;-56
2021/06/22 01:27:05;;;;;;;32.55;6.22;;;;;;;21.97;100.00;100220.64;1767039;79;20980;-56
2021/06/22 01:29:34;;;;;;;28.23;6.08;;;;;;;21.96;100.00;100212.94;1760834;79;21207;-56
2021/06/22 01:32:00;;;;;;;22.15;6.78;;;;;;;21.96;100.00;100214.30;1763472;79;21471;-56
2021/06/22 01:34:29;;;;;;;22.37;6.00;;;;;;;21.95;100.00;100208.48;1765606;79;21027;-56
2021/06/22 01:36:58;;;;;;;28.47;6.97;;;;;;;21.95;100.00;100205.75;1745165;80;20927;-56
2021/06/22 01:39:25;;;;;;;25.12;6.67;;;;;;;21.96;100.00;100210.21;1773739;79;21892;-55
2021/06/22 01:41:52;;;;;;;27.32;6.40;;;;;;;21.96;100.00;100199.30;1759180;80;21041;-57
2021/06/22 01:44:19;;;;;;;29.27;6.12;;;;;;;21.98;100.00;100194.55;1745362;81;21257;-55
2021/06/22 01:46:46;;;;;;;37.75;10.05;;;;;;;21.99;100.00;100192.18;1759583;80;21619;-56
2021/06/22 01:49:13;;;;;;;30.50;13.58;;;;;;;21.98;100.00;100190.46;1754992;80;21836;-55
2021/06/22 01:51:42;;;;;;;26.27;8.75;;;;;;;22.01;100.00;100201.61;1757783;80;21105;-56
2021/06/22 01:54:09;;;;;;;27.50;5.75;;;;;;;22.04;100.00;100214.97;1763132;79;21056;-56
2021/06/22 01:56:38;;;;;;;20.45;5.72;;;;;;;22.06;100.00;100223.02;1740881;80;22467;-56
2021/06/22 01:59:05;;;;;;;17.73;5.08;;;;;;;22.10;100.00;100213.55;1766210;79;20905;-56
2021/06/22 02:01:37;;;;;;;24.23;6.37;;;;;;;22.13;100.00;100219.59;1769301;79;21068;-56
2021/06/22 02:04:05;;;;;;;18.00;7.20;;;;;;;22.21;100.00;100204.36;1764979;79;22082;-56
2021/06/22 02:06:33;;;;;;;31.68;16.75;;;;;;;22.29;100.00;100199.03;1741362;79;21480;-56
2021/06/22 02:09:07;;;;;;;33.65;12.40;;;;;;;22.39;100.00;100194.44;1757386;79;21121;-56
2021/06/22 02:11:34;;;;;;;20.90;9.03;;;;;;;22.47;100.00;100223.80;1703149;81;21079;-56
2021/06/22 02:14:01;;;;;;;26.48;10.58;;;;;;;22.52;100.00;100211.93;1764299;80;20933;-56
2021/06/22 02:16:27;;;;;;;24.18;13.80;;;;;;;22.56;99.95;100220.19;1763886;80;20971;-56
2021/06/22 02:18:55;;;;;;;23.25;12.40;;;;;;;22.59;99.89;100209.48;1775862;80;21457;-55
2021/06/22 02:21:23;;;;;;;22.60;11.30;;;;;;;22.60;99.69;100216.16;1749365;80;21939;-55
2021/06/22 02:23:49;;;;;;;29.07;7.85;;;;;;;22.60;99.66;100218.88;1748553;80;22125;-56
2021/06/22 02:26:18;;;;;;;20.27;8.30;;;;;;;22.60;99.18;100206.59;1757573;80;21555;-56
2021/06/22 02:28:45;;;;;;;24.27;7.20;;;;;;;22.61;99.63;100214.30;1742218;81;21477;-56
2021/06/22 02:31:12;;;;;;;21.35;7.08;;;;;;;22.57;99.63;100208.25;1754541;80;21506;-55
2021/06/22 02:33:39;;;;;;;23.30;7.22;;;;;;;22.58;99.75;100212.70;1766167;80;21485;-56
2021/06/22 02:36:07;;;;;;;17.90;7.40;;;;;;;22.61;99.97;100202.84;1777567;79;20913;-56
2021/06/22 02:38:38;;;;;;;21.30;8.85;;;;;;;22.64;100.00;100204.93;1735708;81;21075;-55
2021/06/22 02:41:05;;;;;;;23.10;12.85;;;;;;;22.64;100.00;100211.27;1752567;79;20991;-56
2021/06/22 02:43:33;;;;;;;36.95;20.45;;;;;;;22.67;100.00;100223.78;1774736;79;20992;-56
2021/06/22 02:46:00;;;;;;;30.75;17.30;;;;;;;22.72;100.00;100225.05;1779088;79;21101;-56
2021/06/22 02:48:27;;;;;;;29.15;14.33;;;;;;;22.77;100.00;100247.84;1756696;80;21418;-56
2021/06/22 02:50:54;;;;;;;34.92;15.53;;;;;;;22.80;99.77;100290.42;1731089;80;21405;-55
2021/06/22 02:53:22;;;;;;;23.42;9.03;;;;;;;22.84;100.00;100305.00;1736950;81;21577;-55
2021/06/22 02:55:49;;;;;;;21.65;4.65;;;;;;;22.83;99.06;100272.38;1775664;79;20982;-55
2021/06/22 02:58:16;;;;;;;18.23;4.42;;;;;;;22.74;96.40;100257.70;1754379;80;21086;-55
2021/06/22 03:00:45;;;;;;;17.90;4.47;;;;;;;22.58;95.10;100267.34;1756132;80;21013;-56
2021/06/22 03:03:12;;;;;;;18.85;4.35;;;;;;;22.42;94.44;100274.71;1777251;79;21009;-56
2021/06/22 03:05:46;;;;;;;23.73;4.72;;;;;;;22.29;94.51;100292.74;1756079;80;20988;-55
2021/06/22 03:08:15;;;;;;;15.23;4.00;;;;;;;22.20;94.60;100276.34;1734019;81;21087;-55
2021/06/22 03:10:42;;;;;;;13.15;4.12;;;;;;;22.17;94.90;100284.30;1768276;79;21181;-56
2021/06/22 03:13:08;;;;;;;15.35;3.52;;;;;;;22.19;94.73;100304.13;1767627;79;21054;-56
2021/06/22 03:15:37;;;;;;;11.83;3.77;;;;;;;22.23;94.31;100311.55;1771109;79;20916;-55
2021/06/22 03:18:04;;;;;;;17.67;4.78;;;;;;;22.24;93.69;100332.38;1775947;79;21394;-55
2021/06/22 03:20:35;;;;;;;19.00;3.75;;;;;;;22.21;93.35;100333.52;1774132;79;21020;-55
2021/06/22 03:23:03;;;;;;;12.30;4.08;;;;;;;22.19;93.07;100308.23;1756061;80;21095;-56
2021/06/22 03:25:30;;;;;;;15.75;4.58;;;;;;;22.17;92.53;100297.95;1760728;80;21413;-56
2021/06/22 03:27:59;;;;;;;11.75;3.87;;;;;;;22.16;92.70;100283.94;1775826;79;20893;-55
2021/06/22 03:30:42;;;;;;;20.43;4.15;;;;;;;22.16;92.93;100267.56;1766071;79;21138;-55
2021/06/22 03:33:10;;;;;;;13.15;3.62;;;;;;;22.15;92.93;100271.30;1754219;79;20904;-55
2021/06/22 03:35:37;;;;;;;12.65;4.00;;;;;;;22.18;92.91;100281.93;1732878;81;21775;-55
2021/06/22 03:38:04;;;;;;;15.45;4.00;;;;;;;22.21;92.96;100287.63;1743336;80;21388;-55
2021/06/22 03:40:30;;;;;;;13.58;3.98;;;;;;;22.22;93.24;100294.32;1750816;80;21006;-55
2021/06/22 03:42:57;;;;;;;13.00;3.55;;;;;;;22.24;93.38;100284.61;1731552;81;21115;-56
2021/06/22 03:45:24;;;;;;;18.25;4.55;;;;;;;22.25;93.49;100287.20;1729372;81;21155;-56
2021/06/22 03:47:52;;;;;;;13.10;3.98;;;;;;;22.27;93.55;100282.47;1680470;82;21538;-56
2021/06/22 03:50:18;;;;;;;13.03;3.80;;;;;;;22.30;93.68;100287.64;1734179;81;21419;-56
2021/06/22 03:52:45;;;;;;;15.08;3.77;;;;;;;22.34;93.80;100303.25;1733345;81;21454;-56
2021/06/22 03:55:26;;;;;;;10.65;4.00;;;;;;;22.41;94.01;100311.70;1729569;81;21106;-57
2021/06/22 03:57:57;;;;;;;12.58;3.77;;;;;;;22.42;94.49;100316.17;1726326;81;21036;-57
2021/06/22 04:00:26;;;;;;;12.25;3.47;;;;;;;22.40;95.00;100317.69;1731339;81;21108;-56
2021/06/22 04:02:59;;;;;;;12.37;3.70;;;;;;;22.38;95.55;100330.62;1735853;81;21414;-56
2021/06/22 04:05:29;;;;;;;11.28;3.60;;;;;;;22.30;95.94;100346.34;1734608;81;20945;-56
2021/06/22 04:08:00;;;;;;;12.55;3.10;;;;;;;22.25;96.24;100359.56;1700717;82;22326;-56
2021/06/22 04:10:28;;;;;;;11.18;3.52;;;;;;;22.17;96.43;100370.30;1731138;81;21123;-56
2021/06/22 04:12:54;;;;;;;7.55;3.20;;;;;;;22.10;97.13;100371.86;1754015;80;21167;-57
2021/06/22 04:15:22;;;;;;;13.03;3.25;;;;;;;22.04;97.94;100375.52;1735025;81;21104;-56
2021/06/22 04:17:49;;;;;;;8.45;3.08;;;;;;;22.00;98.98;100384.98;1732836;80;20921;-56
2021/06/22 04:20:17;;;;;;;11.35;3.33;;;;;;;21.96;100.00;100384.87;1764793;79;21106;-57
2021/06/22 04:22:44;;;;;;;8.48;3.67;;;;;;;21.94;100.00;100391.48;1766238;79;20912;-56
2021/06/22 04:25:13;;;;;;;10.70;3.50;;;;;;;21.96;100.00;100396.30;1767912;79;21166;-56
2021/06/22 04:27:40;;;;;;;14.98;3.42;;;;;;;21.99;100.00;100390.05;1767130;79;21027;-57
2021/06/22 04:30:09;;;;;;;14.87;3.77;;;;;;;22.03;100.00;100384.70;1760304;79;21017;-57
2021/06/22 04:32:37;;;;;;;8.90;3.47;;;;;;;22.10;100.00;100380.05;1772259;77;20928;-57
2021/06/22 04:35:05;;;;;;;10.85;3.25;;;;;;;22.17;100.00;100371.66;1811410;77;20923;-56
2021/06/22 04:37:32;;;;;;;14.40;3.47;;;;;;;22.26;100.00;100358.56;1776796;79;21066;-57
2021/06/22 04:39:58;;;;;;;9.70;3.45;;;;;;;22.37;100.00;100348.50;1775448;79;21002;-57
2021/06/22 04:42:25;;;;;;;14.98;3.33;;;;;;;22.49;100.00;100344.70;1774468;79;21072;-56
2021/06/22 04:44:51;;;;;;;12.15;3.65;;;;;;;22.59;100.00;100350.17;1756680;80;21464;-57
2021/06/22 04:47:20;;;;;;;13.65;3.25;;;;;;;22.71;100.00;100357.73;1716157;81;21214;-57
2021/06/22 04:49:46;;;;;;;8.40;3.30;;;;;;;22.84;100.00;100367.86;1768241;79;21570;-57
2021/06/22 04:52:13;;;;;;;10.08;3.22;;;;;;;22.94;100.00;100374.69;1768642;79;21550;-56
2021/06/22 04:54:40;;;;;;;9.55;3.22;;;;;;;23.05;100.00;100375.05;1763798;79;20915;-56
2021/06/22 04:57:07;;;;;;;11.28;3.65;;;;;;;23.14;100.00;100392.45;1765517;80;21309;-57
2021/06/22 04:59:34;;;;;;;8.95;2.85;;;;;;;23.23;99.54;100383.89;1765357;79;21078;-56
2021/06/22 05:02:02;;;;;;;10.28;3.00;;;;;;;23.29;98.83;100388.80;1766341;79;21641;-56
2021/06/22 05:04:29;;;;;;;9.90;3.08;;;;;;;23.34;98.40;100382.91;1767147;79;20967;-57
2021/06/22 05:06:56;;;;;;;9.53;2.75;;;;;;;23.42;98.02;100383.02;1764428;79;21390;-57
2021/06/22 05:09:22;;;;;;;9.08;2.62;;;;;;;23.51;97.23;100386.27;1758951;79;21349;-57
2021/06/22 05:11:49;;;;;;;8.55;2.70;;;;;;;23.58;96.55;100386.55;1764380;79;21024;-57
2021/06/22 05:14:16;;;;;;;7.67;2.37;;;;;;;23.65;96.12;100375.84;1776371;79;21503;-57
2021/06/22 05:16:42;;;;;;;6.47;2.47;;;;;;;23.74;95.12;100380.44;1775160;79;20915;-57
2021/06/22 05:19:09;;;;;;;5.08;2.47;;;;;;;23.83;94.12;100396.48;1778449;79;20968;-57
2021/06/22 05:21:36;;;;;;;10.35;2.30;;;;;;;23.87;93.32;100400.63;1776307;79;20936;-58
2021/06/22 05:24:03;;;;;;;8.63;2.22;;;;;;;23.92;92.89;100407.89;1774388;79;21026;-57
2021/06/22 05:26:29;;;;;;;3.85;1.70;;;;;;;23.92;92.35;100406.52;1770296;79;21147;-58
2021/06/22 05:28:56;;;;;;;6.70;2.12;;;;;;;23.88;91.49;100406.47;1750072;80;21083;-56
2021/06/22 05:31:23;;;;;;;5.15;1.90;;;;;;;23.81;90.43;100416.30;1734204;81;20997;-56
2021/06/22 05:33:49;;;;;;;4.87;1.70;;;;;;;23.72;89.06;100421.62;1779794;79;20991;-57
2021/06/22 05:36:16;;;;;;;4.20;1.75;;;;;;;23.66;88.44;100415.39;1741120;81;21014;-57
2021/06/22 05:38:43;;;;;;;6.28;2.20;;;;;;;23.63;87.71;100419.79;1748266;80;21176;-57
2021/06/22 05:41:10;;;;;;;6.85;2.05;;;;;;;23.57;87.46;100413.02;1764526;79;21038;-56
2021/06/22 05:43:36;;;;;;;8.60;1.90;;;;;;;23.54;87.60;100400.13;1758589;80;21040;-57
2021/06/22 05:46:02;;;;;;;5.05;2.15;;;;;;;23.55;87.73;100405.99;1761399;79;21035;-56
2021/06/22 05:48:29;;;;;;;6.40;2.50;;;;;;;23.61;87.03;100412.23;1770140;80;21000;-56
2021/06/22 05:50:56;;;;;;;5.12;1.80;;;;;;;23.70;86.31;100411.86;1762876;80;21197;-56
2021/06/22 05:53:23;;;;;;;7.55;2.30;;;;;;;23.86;85.48;100408.49;1762128;80;20991;-56
2021/06/22 05:55:50;;;;;;;7.92;2.30;;;;;;;23.99;84.41;100406.30;1775212;80;20982;-56
2021/06/22 05:58:17;;;;;;;8.25;2.33;;;;;;;24.15;83.21;100408.91;1774834;79;20960;-57
2021/06/22 06:00:44;;;;;;;3.65;1.95;;;;;;;24.25;82.28;100412.48;1771330;79;21034;-58
2021/06/22 06:03:11;;;;;;;6.28;2.20;;;;;;;24.39;81.66;100414.34;1774666;79;21114;-58
2021/06/22 06:05:38;;;;;;;6.92;1.80;;;;;;;24.51;80.46;100407.65;1759059;80;20979;-57
2021/06/22 06:08:05;;;;;;;7.12;1.65;;;;;;;24.58;79.41;100397.79;1775270;79;20904;-57
2021/06/22 06:10:33;;;;;;;5.67;1.40;;;;;;;24.63;78.05;100397.83;1773782;79;21189;-57
2021/06/22 06:12:59;;;;;;;3.55;1.15;;;;;;;24.66;77.37;100398.92;1772441;79;21162;-57
2021/06/22 06:15:26;;;;;;;2.20;1.00;;;;;;;24.67;76.43;100400.64;1769808;79;21571;-57
2021/06/22 06:17:53;;;;;;;4.72;1.00;;;;;;;24.66;75.13;100386.58;1758247;79;21519;-57
2021/06/22 06:20:21;;;;;;;2.67;1.20;;;;;;;24.63;74.80;100380.02;1735278;81;21593;-57
2021/06/22 06:22:48;;;;;;;5.22;1.50;;;;;;;24.64;74.52;100381.73;1769907;79;21004;-58
2021/06/22 06:25:15;;;;;;;4.03;1.40;;;;;;;24.72;74.13;100380.47;1762354;79;21704;-57
2021/06/22 06:27:53;;;;;;;3.10;1.00;;;;;;;24.81;73.75;100378.19;1764715;79;21958;-57
2021/06/22 06:30:24;;;;;;;6.90;1.20;;;;;;;24.91;72.88;100374.52;1764096;79;21073;-58
2021/06/22 06:32:51;;;;;;;10.93;1.30;;;;;;;24.93;72.55;100365.10;1768521;79;20952;-59
2021/06/22 06:35:18;;;;;;;2.27;1.12;;;;;;;25.01;72.52;100353.34;1770661;79;21547;-57
2021/06/22 06:37:46;;;;;;;1.67;1.10;;;;;;;25.13;72.06;100361.70;1762410;79;21100;-57
2021/06/22 06:40:14;;;;;;;8.30;1.77;;;;;;;25.23;71.97;100360.23;1774016;79;21652;-58
2021/06/22 06:42:40;;;;;;;2.85;1.10;;;;;;;25.37;71.91;100360.66;1735960;81;21095;-57
2021/06/22 06:45:08;;;;;;;5.22;1.05;;;;;;;25.51;71.09;100378.45;1766566;79;21551;-58
2021/06/22 06:47:35;;;;;;;1.52;0.90;;;;;;;25.62;70.65;100379.56;1767429;79;21378;-58
2021/06/22 06:50:04;;;;;;;3.08;1.32;;;;;;;25.73;70.44;100358.69;1761179;79;21022;-58
2021/06/22 06:52:30;;;;;;;4.37;1.12;;;;;;;25.83;70.04;100354.98;1762043;79;21104;-58
2021/06/22 06:54:59;;;;;;;3.12;1.07;;;;;;;25.93;69.51;100347.47;1760447;79;21878;-58
2021/06/22 06:57:29;;;;;;;1.85;1.10;;;;;;;26.02;69.23;100348.37;1768959;79;21166;-58
2021/06/22 06:59:55;;;;;;;3.17;1.30;;;;;;;26.12;69.31;100348.23;1768149;79;21055;-57
2021/06/22 07:02:22;;;;;;;2.27;1.67;;;;;;;26.17;68.82;100347.25;1776544;79;79985;-58
2021/06/22 07:04:49;;;;;;;4.85;1.65;;;;;;;26.22;68.93;100354.50;1730082;81;21119;-57
2021/06/22 07:07:15;;;;;;;5.10;1.65;;;;;;;26.29;69.06;100354.17;1744708;80;20974;-58
2021/06/22 07:09:42;;;;;;;2.92;1.60;;;;;;;26.39;69.06;100342.17;1739993;80;20992;-58
2021/06/22 07:12:09;;;;;;;18.75;1.80;;;;;;;26.47;68.92;100332.59;1736862;81;21642;-59
2021/06/22 07:14:36;;;;;;;5.08;1.45;;;;;;;26.48;68.38;100328.81;1765953;79;21064;-59
2021/06/22 07:17:03;;;;;;;5.15;1.37;;;;;;;26.43;68.76;100329.84;1756756;79;21078;-56
2021/06/22 07:19:30;;;;;;;1.77;1.10;;;;;;;26.35;69.08;100336.67;1766816;79;21097;-57
2021/06/22 07:21:57;;;;;;;4.92;1.50;;;;;;;26.27;69.46;100342.99;1764330;79;20931;-56
2021/06/22 07:24:23;;;;;;;3.37;1.05;;;;;;;26.19;69.54;100345.72;1764438;79;21077;-57
2021/06/22 07:26:50;;;;;;;3.60;1.15;;;;;;;26.11;69.91;100357.01;1752412;80;21033;-58
2021/06/22 07:29:17;;;;;;;3.55;1.20;;;;;;;26.07;70.67;100346.50;1751619;80;21754;-59
2021/06/22 07:31:43;;;;;;;3.58;1.22;;;;;;;26.15;70.06;100346.52;1742278;81;20991;-59
2021/06/22 07:34:10;;;;;;;5.22;1.20;;;;;;;26.27;70.03;100358.10;1770143;79;22219;-58
2021/06/22 07:36:37;;;;;;;5.20;1.52;;;;;;;26.38;69.70;100363.81;1764514;79;21090;-58
2021/06/22 07:39:04;;;;;;;2.47;1.47;;;;;;;26.42;69.60;100371.56;1767140;79;21016;-58
2021/06/22 07:41:34;;;;;;;4.97;1.60;;;;;;;26.48;69.71;100378.28;1771879;79;21469;-59
2021/06/22 07:44:02;;;;;;;4.65;1.40;;;;;;;26.54;69.06;100366.61;1743954;79;21511;-58
2021/06/22 07:46:31;;;;;;;6.25;1.70;;;;;;;26.56;68.47;100364.55;1770945;79;21756;-58
2021/06/22 07:48:58;;;;;;;4.87;1.40;;;;;;;26.50;68.17;100368.48;1775123;79;21068;-59
2021/06/22 07:51:25;;;;;;;5.42;1.57;;;;;;;26.42;68.49;100374.84;1775828;79;21064;-59
2021/06/22 07:53:51;;;;;;;6.62;1.60;;;;;;;26.45;68.21;100375.87;1751975;80;21911;-59
2021/06/22 07:56:18;;;;;;;6.12;1.52;;;;;;;26.53;67.68;100377.26;1771160;79;21024;-58
2021/06/22 07:58:47;;;;;;;4.83;1.57;;;;;;;26.64;67.20;100387.58;1763249;79;21746;-60
2021/06/22 08:01:15;;;;;;;6.12;1.77;;;;;;;26.74;67.10;100381.43;1739298;79;21447;-59
2021/06/22 08:03:43;;;;;;;6.28;1.80;;;;;;;26.88;67.03;100387.68;1764202;79;21142;-58
2021/06/22 08:06:13;;;;;;;9.08;1.90;;;;;;;27.03;66.24;100391.11;1738192;79;21480;-60
2021/06/22 08:08:41;;;;;;;5.95;1.90;;;;;;;27.02;66.00;100392.14;1766944;79;21899;-58
2021/06/22 08:11:07;;;;;;;6.62;1.90;;;;;;;26.95;65.49;100388.37;1765788;79;21465;-57
2021/06/22 08:13:34;;;;;;;5.35;1.95;;;;;;;26.94;65.79;100393.52;1772489;79;21572;-58
2021/06/22 08:16:01;;;;;;;9.18;2.58;;;;;;;27.02;65.86;100393.52;1764422;79;21292;-59
2021/06/22 08:18:29;;;;;;;10.30;2.37;;;;;;;27.05;66.24;100394.55;1769055;79;21350;-57
2021/06/22 08:20:58;;;;;;;3.20;2.20;;;;;;;27.06;66.52;100402.30;1717488;79;20956;-57
2021/06/22 08:23:24;;;;;;;7.30;2.47;;;;;;;27.02;67.00;100408.65;1764914;79;21114;-58
2021/06/22 08:25:52;;;;;;;6.28;2.40;;;;;;;26.95;67.37;100406.24;1765916;79;21494;-58
2021/06/22 08:28:19;;;;;;;5.72;2.60;;;;;;;26.95;67.26;100403.49;1770812;79;21605;-58
2021/06/22 08:30:46;;;;;;;6.78;2.20;;;;;;;26.92;67.70;100407.97;1766071;79;21433;-58
2021/06/22 08:33:13;;;;;;;7.97;2.40;;;;;;;26.88;68.21;100406.93;1762516;79;21664;-58
2021/06/22 08:35:40;;;;;;;7.75;2.62;;;;;;;26.95;67.98;100396.09;1767475;79;21004;-58
2021/06/22 08:38:09;;;;;;;10.05;3.30;;;;;;;27.09;67.78;100406.95;1749692;80;21418;-58
2021/06/22 08:44:47;;;;;;;8.83;2.87;;;;;;;27.13;67.13;100409.70;1733752;79;21352;-58
2021/06/22 08:47:14;;;;;;;9.28;3.15;;;;;;;27.28;67.18;100412.63;1698159;81;21574;-59
2021/06/22 08:49:42;;;;;;;10.78;2.77;;;;;;;27.43;66.70;100423.80;1732219;80;21871;-60
2021/06/22 08:52:09;;;;;;;7.37;2.60;;;;;;;27.52;66.32;100415.05;1730149;80;21007;-59
2021/06/22 09:03:03;;;;;;;9.20;2.67;;;;;;;27.83;64.68;100432.73;1720074;79;21120;-59
2021/06/22 09:05:30;;;;;;;4.33;2.25;;;;;;;27.76;64.67;100433.11;1729576;80;21079;-59
2021/06/22 09:07:57;;;;;;;11.28;2.85;;;;;;;27.68;64.70;100433.97;1731791;80;20987;-59
2021/06/22 09:10:31;;;;;;;6.70;2.58;;;;;;;27.68;65.10;100434.81;1730597;81;21072;-58
2021/06/22 09:13:02;;;;;;;10.35;3.08;;;;;;;27.73;65.84;100440.66;1725755;80;21123;-59
2021/06/22 09:15:32;;;;;;;13.28;2.80;;;;;;;27.69;65.94;100426.05;1723807;80;21415;-59
2021/06/22 09:17:59;;;;;;;8.08;2.60;;;;;;;27.64;65.87;100427.94;1724233;81;21064;-59
2021/06/22 09:20:40;;;;;;;9.20;2.60;;;;;;;27.72;66.00;100424.33;1732212;80;20858;-60
2021/06/22 09:23:17;;;;;;;10.28;2.67;;;;;;;27.84;66.08;100420.16;1729774;81;22345;-60
2021/06/22 09:25:45;;;;;;;7.67;2.65;;;;;;;27.94;65.63;100425.47;1727710;81;21785;-60
2021/06/22 09:28:14;;;;;;;5.60;2.92;;;;;;;27.95;65.73;100431.31;1728563;81;21450;-59
2021/06/22 09:30:47;;;;;;;11.03;2.90;;;;;;;27.92;66.46;100432.20;1732533;81;21864;-60
2021/06/22 09:33:21;;;;;;;12.10;3.37;;;;;;;27.93;66.24;100428.41;1728510;81;21503;-59
2021/06/22 09:36:01;;;;;;;13.70;3.75;;;;;;;27.84;66.68;100433.92;1723697;81;20990;-60
2021/06/22 09:38:32;;;;;;;11.80;3.40;;;;;;;27.74;66.57;100441.02;1687530;81;21116;-60
2021/06/22 09:41:05;;;;;;;7.55;3.52;;;;;;;27.60;67.11;100440.34;1727016;81;20929;-59
2021/06/22 09:43:47;;;;;;;17.77;3.77;;;;;;;27.52;67.91;100436.20;1728701;80;21056;-60
2021/06/22 09:46:15;;;;;;;11.30;3.95;;;;;;;27.52;68.58;100437.58;1728534;80;21481;-61
2021/06/22 09:48:52;;;;;;;7.83;3.50;;;;;;;27.40;69.61;100445.29;1722219;80;20959;-58
2021/06/22 09:51:16;;;;;;;;;;;;;;;27.34;69.94;100433.10;1728388;80;21013;-59
2021/06/22 09:53:42;;;;;;;15.95;4.40;;;;;;;27.30;69.93;100420.69;1731052;81;20156;-59
2021/06/22 09:56:24;;;;;;;16.87;3.98;;;;;;;27.27;70.48;100423.79;1727470;81;21022;-60
2021/06/22 09:58:52;;;;;;;18.87;4.45;;;;;;;27.29;70.56;100414.84;1733041;81;21506;-59
2021/06/22 10:01:34;;;;;;;14.95;4.17;;;;;;;27.21;71.22;100429.99;1694227;82;22203;-60
2021/06/22 10:04:23;;;;;;;13.20;4.22;;;;;;;27.15;71.67;100418.64;1734509;80;22169;-61
2021/06/22 10:06:54;;;;;;;15.28;3.90;;;;;;;27.16;72.65;100420.36;1732736;80;21018;-60
2021/06/22 10:09:31;;;;;;;25.08;5.75;;;;;;;27.25;72.83;100412.10;1727574;80;21027;-62
2021/06/22 10:12:12;;;;;;;18.62;5.15;;;;;;;27.30;71.43;100408.31;1735530;80;21048;-63
2021/06/22 10:14:50;;;;;;;23.02;5.85;;;;;;;27.23;71.81;100411.41;1730580;80;20917;-62
2021/06/22 10:17:19;;;;;;;14.73;5.58;;;;;;;27.17;72.22;100409.70;1732030;80;22082;-63
2021/06/22 10:19:50;;;;;;;25.50;5.60;;;;;;;27.19;72.90;100398.54;1711345;81;20969;-63
2021/06/22 10:22:25;;;;;;;20.68;4.90;;;;;;;27.24;72.76;100411.76;1729896;80;21538;-61
2021/06/22 10:24:48;;;;;;;16.05;4.70;;;;;;;27.24;73.26;100405.75;1730644;80;20989;-64
2021/06/22 10:27:18;;;;;;;21.40;5.55;;;;;;;27.31;73.70;100408.68;1730061;80;21411;-64
2021/06/22 10:29:50;;;;;;;24.12;5.67;;;;;;;27.37;73.71;100416.73;1732293;80;21793;-63
2021/06/22 10:32:17;;;;;;;18.55;5.55;;;;;;;27.34;73.75;100408.34;1690698;82;20978;-64
2021/06/22 10:34:47;;;;;;;24.00;5.62;;;;;;;27.29;74.11;100400.59;1739542;80;21025;-60
2021/06/22 10:37:28;;;;;;;24.85;5.58;;;;;;;27.29;74.56;100405.22;1736275;80;21020;-62
2021/06/22 10:40:01;;;;;;;26.57;6.40;;;;;;;27.31;74.65;100406.77;1734037;80;20988;-69
2021/06/22 10:42:54;;;;;;;22.17;7.35;;;;;;;27.36;74.99;100394.38;1729586;80;21084;-63
2021/06/22 10:45:21;;;;;;;21.40;6.25;;;;;;;27.43;74.71;100397.66;1687629;82;21124;-62
2021/06/22 10:47:50;;;;;;;32.20;6.00;;;;;;;27.43;74.23;100404.53;1732572;80;21378;-60
2021/06/22 10:50:28;;;;;;;27.60;6.42;;;;;;;27.40;74.61;100395.75;1735965;80;21116;-63
2021/06/22 10:53:07;;;;;;;24.07;6.22;;;;;;;27.40;74.82;100398.00;1734691;80;22348;-62
2021/06/22 10:55:46;;;;;;;21.70;6.10;;;;;;;27.49;75.32;100393.85;1730176;80;21092;-61
2021/06/22 10:58:13;;;;;;;26.15;8.00;;;;;;;27.49;74.72;100406.23;1731581;80;20985;-65
2021/06/22 11:01:00;;;;;;;28.20;7.45;;;;;;;27.42;74.55;100401.44;1736645;80;20903;-63
2021/06/22 11:03:32;;;;;;;24.92;6.90;;;;;;;27.36;73.55;100406.77;1736800;80;21094;-58
2021/06/22 11:06:06;;;;;;;26.62;6.10;;;;;;;27.30;73.60;100406.93;1727730;80;21059;-58
2021/06/22 11:08:41;;;;;;;28.50;7.15;;;;;;;27.32;74.93;100398.02;1726909;80;21358;-63
2021/06/22 11:11:13;;;;;;;30.82;6.83;;;;;;;27.41;74.67;100392.84;1729376;80;21007;-63
2021/06/22 11:13:47;;;;;;;38.70;7.10;;;;;;;27.55;73.56;100394.59;1733348;80;20933;-65
2021/06/22 11:16:20;;;;;;;35.45;6.85;;;;;;;27.69;73.39;100397.14;1731658;80;21519;-65
2021/06/22 11:18:57;;;;;;;37.38;8.35;;;;;;;27.82;71.60;100397.97;1698345;82;21081;-63
2021/06/22 11:21:35;;;;;;;31.15;6.62;;;;;;;27.89;70.81;100397.59;1672187;83;21098;-64
2021/06/22 11:24:18;;;;;;;34.00;7.10;;;;;;;27.97;69.53;100396.72;1673692;83;22257;-65
2021/06/22 11:26:51;;;;;;;25.92;6.90;;;;;;;28.02;69.10;100393.78;1673095;83;21104;-61
2021/06/22 11:29:25;;;;;;;40.37;6.97;;;;;;;28.10;68.80;100394.78;1675907;83;21154;-61
2021/06/22 11:31:59;;;;;;;21.65;5.22;;;;;;;28.16;68.24;100394.96;1673891;83;22693;-61
2021/06/22 11:34:32;;;;;;;36.73;5.92;;;;;;;28.22;67.85;100398.91;1674929;83;21123;-60
2021/06/22 11:37:11;;;;;;;32.90;6.50;;;;;;;28.25;67.88;100399.92;1677626;83;21001;-61